sensor_id;sensor_type;location;lat;lon;timestamp;pressure;altitude;pressure_sealevel;temperature;humidity
7930;BME280;4010;42.698;23.124;2023-12-14T00:02:07;118349.16;;;-140.64;63.03
7930;BME280;4010;42.698;23.124;2023-12-14T00:04:34;118349.16;;;-140.64;63.06
7930;BME280;4010;42.698;23.124;2023-12-14T00:07:02;118349.16;;;-140.64;63.24
7930;BME280;4010;42.698;23.124;2023-12-14T00:09:29;118349.16;;;-140.64;62.89
7930;BME280;4010;42.698;23.124;2023-12-14T00:11:56;118349.16;;;-140.64;62.21
7930;BME280;4010;42.698;23.124;2023-12-14T00:14:22;118349.16;;;-140.64;62.04
7930;BME280;4010;42.698;23.124;2023-12-14T00:16:49;118349.16;;;-140.64;62.27
7930;BME280;4010;42.698;23.124;2023-12-14T00:19:15;118349.16;;;-140.64;61.68
7930;BME280;4010;42.698;23.124;2023-12-14T00:21:43;118349.16;;;-140.64;62.22
7930;BME280;4010;42.698;23.124;2023-12-14T00:24:11;118349.16;;;-140.64;62.23
7930;BME280;4010;42.698;23.124;2023-12-14T00:26:38;118349.16;;;-140.64;62.09
7930;BME280;4010;42.698;23.124;2023-12-14T00:29:04;118349.16;;;-140.64;61.26
7930;BME280;4010;42.698;23.124;2023-12-14T00:31:31;118349.16;;;-140.64;61.04
7930;BME280;4010;42.698;23.124;2023-12-14T00:33:58;118349.16;;;-140.64;60.28
7930;BME280;4010;42.698;23.124;2023-12-14T00:36:24;118349.16;;;-140.64;59.55
7930;BME280;4010;42.698;23.124;2023-12-14T00:38:51;118349.16;;;-140.64;58.30
7930;BME280;4010;42.698;23.124;2023-12-14T00:41:19;118349.16;;;-140.64;57.66
7930;BME280;4010;42.698;23.124;2023-12-14T00:43:46;118349.16;;;-140.64;56.57
7930;BME280;4010;42.698;23.124;2023-12-14T00:46:12;118349.16;;;-140.64;61.46
7930;BME280;4010;42.698;23.124;2023-12-14T00:48:39;118349.16;;;-140.64;67.99
7930;BME280;4010;42.698;23.124;2023-12-14T00:51:06;118349.16;;;-140.64;73.24
7930;BME280;4010;42.698;23.124;2023-12-14T00:53:33;118349.16;;;-140.64;74.94
7930;BME280;4010;42.698;23.124;2023-12-14T00:55:59;118349.16;;;-140.64;78.57
7930;BME280;4010;42.698;23.124;2023-12-14T00:58:27;118349.16;;;-140.64;78.79
7930;BME280;4010;42.698;23.124;2023-12-14T01:00:54;118349.16;;;-140.64;79.06
7930;BME280;4010;42.698;23.124;2023-12-14T01:03:21;118349.16;;;-140.64;80.49
7930;BME280;4010;42.698;23.124;2023-12-14T01:05:47;118349.16;;;-140.64;81.28
7930;BME280;4010;42.698;23.124;2023-12-14T01:08:14;118349.16;;;-140.64;81.78
7930;BME280;4010;42.698;23.124;2023-12-14T01:10:41;118349.16;;;-140.64;82.29
7930;BME280;4010;42.698;23.124;2023-12-14T01:13:08;118349.16;;;-140.64;83.27
7930;BME280;4010;42.698;23.124;2023-12-14T01:15:36;118349.16;;;-140.64;83.53
7930;BME280;4010;42.698;23.124;2023-12-14T01:18:03;118349.16;;;-140.64;84.30
7930;BME280;4010;42.698;23.124;2023-12-14T01:20:30;118349.16;;;-140.64;84.62
7930;BME280;4010;42.698;23.124;2023-12-14T01:22:57;118349.16;;;-140.64;84.41
7930;BME280;4010;42.698;23.124;2023-12-14T01:25:24;118349.16;;;-140.64;84.55
7930;BME280;4010;42.698;23.124;2023-12-14T01:27:50;118349.16;;;-140.64;85.15
7930;BME280;4010;42.698;23.124;2023-12-14T01:30:17;118349.16;;;-140.64;85.77
7930;BME280;4010;42.698;23.124;2023-12-14T01:32:45;118349.16;;;-140.64;85.97
7930;BME280;4010;42.698;23.124;2023-12-14T01:35:12;118349.16;;;-140.64;86.05
7930;BME280;4010;42.698;23.124;2023-12-14T01:37:39;118349.16;;;-140.64;85.50
7930;BME280;4010;42.698;23.124;2023-12-14T01:40:06;118349.16;;;-140.64;86.05
7930;BME280;4010;42.698;23.124;2023-12-14T01:42:33;118349.16;;;-140.64;86.58
7930;BME280;4010;42.698;23.124;2023-12-14T01:45:00;118349.16;;;-140.64;86.64
7930;BME280;4010;42.698;23.124;2023-12-14T01:47:27;118349.16;;;-140.64;86.50
7930;BME280;4010;42.698;23.124;2023-12-14T01:49:55;118349.16;;;-140.64;86.66
7930;BME280;4010;42.698;23.124;2023-12-14T01:52:20;118349.16;;;-140.64;86.70
7930;BME280;4010;42.698;23.124;2023-12-14T01:54:47;118349.16;;;-140.64;86.59
7930;BME280;4010;42.698;23.124;2023-12-14T01:57:14;118349.16;;;-140.64;87.26
7930;BME280;4010;42.698;23.124;2023-12-14T01:59:40;118349.16;;;-140.64;88.55
7930;BME280;4010;42.698;23.124;2023-12-14T02:02:07;118349.16;;;-140.64;90.12
7930;BME280;4010;42.698;23.124;2023-12-14T02:04:34;118349.16;;;-140.64;91.58
7930;BME280;4010;42.698;23.124;2023-12-14T02:07:02;118349.16;;;-140.64;89.83
7930;BME280;4010;42.698;23.124;2023-12-14T02:09:29;118349.16;;;-140.64;88.07
7930;BME280;4010;42.698;23.124;2023-12-14T02:11:56;118349.16;;;-140.64;86.58
7930;BME280;4010;42.698;23.124;2023-12-14T02:14:22;118349.16;;;-140.64;85.33
7930;BME280;4010;42.698;23.124;2023-12-14T02:16:49;118349.16;;;-140.64;84.70
7930;BME280;4010;42.698;23.124;2023-12-14T02:19:16;118349.16;;;-140.64;84.30
7930;BME280;4010;42.698;23.124;2023-12-14T02:21:42;118349.16;;;-140.64;83.49
7930;BME280;4010;42.698;23.124;2023-12-14T02:24:11;118349.16;;;-140.64;82.88
7930;BME280;4010;42.698;23.124;2023-12-14T02:26:37;118349.16;;;-140.64;82.72
7930;BME280;4010;42.698;23.124;2023-12-14T02:29:04;118349.16;;;-140.64;82.74
7930;BME280;4010;42.698;23.124;2023-12-14T02:31:31;118349.16;;;-140.64;82.19
7930;BME280;4010;42.698;23.124;2023-12-14T02:33:57;118349.16;;;-140.64;82.43
7930;BME280;4010;42.698;23.124;2023-12-14T02:36:24;118349.16;;;-140.64;81.90
7930;BME280;4010;42.698;23.124;2023-12-14T02:38:51;118349.16;;;-140.64;82.04
7930;BME280;4010;42.698;23.124;2023-12-14T02:41:19;118349.16;;;-140.64;81.94
7930;BME280;4010;42.698;23.124;2023-12-14T02:43:46;118349.16;;;-140.64;82.11
7930;BME280;4010;42.698;23.124;2023-12-14T02:46:12;118349.16;;;-140.64;81.94
7930;BME280;4010;42.698;23.124;2023-12-14T02:48:41;118349.16;;;-140.64;82.42
7930;BME280;4010;42.698;23.124;2023-12-14T02:51:12;118349.16;;;-140.64;83.46
7930;BME280;4010;42.698;23.124;2023-12-14T02:53:39;118349.16;;;-140.64;84.19
7930;BME280;4010;42.698;23.124;2023-12-14T02:56:06;118349.16;;;-140.64;84.33
7930;BME280;4010;42.698;23.124;2023-12-14T02:58:35;118349.16;;;-140.64;84.68
7930;BME280;4010;42.698;23.124;2023-12-14T03:01:01;118349.16;;;-140.64;85.16
7930;BME280;4010;42.698;23.124;2023-12-14T03:03:29;118349.16;;;-140.64;85.04
7930;BME280;4010;42.698;23.124;2023-12-14T03:05:55;118349.16;;;-140.64;85.89
7930;BME280;4010;42.698;23.124;2023-12-14T03:08:22;118349.16;;;-140.64;85.63
7930;BME280;4010;42.698;23.124;2023-12-14T03:10:49;118349.16;;;-140.64;86.33
7930;BME280;4010;42.698;23.124;2023-12-14T03:13:16;118349.16;;;-140.64;86.50
7930;BME280;4010;42.698;23.124;2023-12-14T03:15:44;118349.16;;;-140.64;87.17
7930;BME280;4010;42.698;23.124;2023-12-14T03:18:12;118349.16;;;-140.64;86.64
7930;BME280;4010;42.698;23.124;2023-12-14T03:20:38;118349.16;;;-140.64;82.09
7930;BME280;4010;42.698;23.124;2023-12-14T03:23:05;118349.16;;;-140.64;78.35
7930;BME280;4010;42.698;23.124;2023-12-14T03:25:32;118349.16;;;-140.64;74.43
7930;BME280;4010;42.698;23.124;2023-12-14T03:27:58;118349.16;;;-140.64;70.53
7930;BME280;4010;42.698;23.124;2023-12-14T03:30:25;118349.16;;;-140.64;67.77
7930;BME280;4010;42.698;23.124;2023-12-14T03:32:54;118349.16;;;-140.64;64.94
7930;BME280;4010;42.698;23.124;2023-12-14T03:35:20;118349.16;;;-140.64;62.28
7930;BME280;4010;42.698;23.124;2023-12-14T03:37:47;118349.16;;;-140.64;60.75
7930;BME280;4010;42.698;23.124;2023-12-14T03:40:14;118349.16;;;-140.64;59.63
7930;BME280;4010;42.698;23.124;2023-12-14T03:42:41;118349.16;;;-140.64;59.54
7930;BME280;4010;42.698;23.124;2023-12-14T03:45:08;118349.16;;;-140.64;59.14
7930;BME280;4010;42.698;23.124;2023-12-14T03:47:36;118349.16;;;-140.64;58.65
7930;BME280;4010;42.698;23.124;2023-12-14T03:50:06;118349.16;;;-140.64;58.09
7930;BME280;4010;42.698;23.124;2023-12-14T03:52:33;118349.16;;;-140.64;58.05
7930;BME280;4010;42.698;23.124;2023-12-14T03:55:00;118349.16;;;-140.64;58.02
7930;BME280;4010;42.698;23.124;2023-12-14T03:57:26;118349.16;;;-140.64;58.27
7930;BME280;4010;42.698;23.124;2023-12-14T03:59:53;118349.16;;;-140.64;58.30
7930;BME280;4010;42.698;23.124;2023-12-14T04:02:20;118349.16;;;-140.64;58.09
7930;BME280;4010;42.698;23.124;2023-12-14T04:04:47;118349.16;;;-140.64;58.23
7930;BME280;4010;42.698;23.124;2023-12-14T04:07:15;118349.16;;;-140.64;57.96
7930;BME280;4010;42.698;23.124;2023-12-14T04:09:41;118349.16;;;-140.64;56.51
7930;BME280;4010;42.698;23.124;2023-12-14T04:12:08;118349.16;;;-140.64;56.30
7930;BME280;4010;42.698;23.124;2023-12-14T04:14:35;118349.16;;;-140.64;56.23
7930;BME280;4010;42.698;23.124;2023-12-14T04:17:02;118349.16;;;-140.64;55.73
7930;BME280;4010;42.698;23.124;2023-12-14T04:19:29;118349.16;;;-140.64;55.87
7930;BME280;4010;42.698;23.124;2023-12-14T04:21:55;118349.16;;;-140.64;55.92
7930;BME280;4010;42.698;23.124;2023-12-14T04:24:23;118349.16;;;-140.64;55.89
7930;BME280;4010;42.698;23.124;2023-12-14T04:26:50;118349.16;;;-140.64;56.19
7930;BME280;4010;42.698;23.124;2023-12-14T04:29:17;118349.16;;;-140.64;56.31
7930;BME280;4010;42.698;23.124;2023-12-14T04:31:43;118349.16;;;-140.64;56.69
7930;BME280;4010;42.698;23.124;2023-12-14T04:34:10;118349.16;;;-140.64;56.44
7930;BME280;4010;42.698;23.124;2023-12-14T04:36:40;118349.16;;;-140.64;56.71
7930;BME280;4010;42.698;23.124;2023-12-14T04:39:07;118349.16;;;-140.64;56.25
7930;BME280;4010;42.698;23.124;2023-12-14T04:41:35;118349.16;;;-140.64;55.91
7930;BME280;4010;42.698;23.124;2023-12-14T04:44:02;118349.16;;;-140.64;55.53
7930;BME280;4010;42.698;23.124;2023-12-14T04:46:29;118349.16;;;-140.64;55.53
7930;BME280;4010;42.698;23.124;2023-12-14T04:48:56;118349.16;;;-140.64;54.56
7930;BME280;4010;42.698;23.124;2023-12-14T04:51:22;118349.16;;;-140.64;54.18
7930;BME280;4010;42.698;23.124;2023-12-14T04:53:49;118349.16;;;-140.64;54.40
7930;BME280;4010;42.698;23.124;2023-12-14T04:56:16;118349.16;;;-140.64;54.62
7930;BME280;4010;42.698;23.124;2023-12-14T04:58:44;118349.16;;;-140.64;54.60
7930;BME280;4010;42.698;23.124;2023-12-14T05:01:11;118349.16;;;-140.64;54.11
7930;BME280;4010;42.698;23.124;2023-12-14T05:03:38;118349.16;;;-140.64;53.56
7930;BME280;4010;42.698;23.124;2023-12-14T05:06:05;118349.16;;;-140.64;53.06
7930;BME280;4010;42.698;23.124;2023-12-14T05:08:32;118349.16;;;-140.64;52.44
7930;BME280;4010;42.698;23.124;2023-12-14T05:10:59;118349.16;;;-140.64;52.54
7930;BME280;4010;42.698;23.124;2023-12-14T05:13:25;118349.16;;;-140.64;52.51
7930;BME280;4010;42.698;23.124;2023-12-14T05:15:54;118349.16;;;-140.64;52.45
7930;BME280;4010;42.698;23.124;2023-12-14T05:18:20;118349.16;;;-140.64;52.13
7930;BME280;4010;42.698;23.124;2023-12-14T05:20:47;118349.16;;;-140.64;52.06
7930;BME280;4010;42.698;23.124;2023-12-14T05:23:14;118349.16;;;-140.64;52.07
7930;BME280;4010;42.698;23.124;2023-12-14T05:25:40;118349.16;;;-140.64;52.04
7930;BME280;4010;42.698;23.124;2023-12-14T05:28:07;118349.16;;;-140.64;51.93
7930;BME280;4010;42.698;23.124;2023-12-14T05:30:34;118349.16;;;-140.64;51.39
7930;BME280;4010;42.698;23.124;2023-12-14T05:33:02;118349.16;;;-140.64;51.91
7930;BME280;4010;42.698;23.124;2023-12-14T05:35:29;118349.16;;;-140.64;52.37
7930;BME280;4010;42.698;23.124;2023-12-14T05:37:55;118349.16;;;-140.64;52.67
7930;BME280;4010;42.698;23.124;2023-12-14T05:40:22;118349.16;;;-140.64;52.74
7930;BME280;4010;42.698;23.124;2023-12-14T05:42:49;118349.16;;;-140.64;52.06
7930;BME280;4010;42.698;23.124;2023-12-14T05:45:16;118349.16;;;-140.64;52.22
7930;BME280;4010;42.698;23.124;2023-12-14T05:47:43;118349.16;;;-140.64;52.82
7930;BME280;4010;42.698;23.124;2023-12-14T05:50:12;118349.16;;;-140.64;52.76
7930;BME280;4010;42.698;23.124;2023-12-14T05:52:38;118349.16;;;-140.64;53.32
7930;BME280;4010;42.698;23.124;2023-12-14T05:55:07;118349.16;;;-140.64;53.69
7930;BME280;4010;42.698;23.124;2023-12-14T05:57:36;118349.16;;;-140.64;53.22
7930;BME280;4010;42.698;23.124;2023-12-14T06:00:04;118349.16;;;-140.64;53.05
7930;BME280;4010;42.698;23.124;2023-12-14T06:02:31;118349.16;;;-140.64;52.59
7930;BME280;4010;42.698;23.124;2023-12-14T06:04:58;118349.16;;;-140.64;52.95
7930;BME280;4010;42.698;23.124;2023-12-14T06:07:26;118349.16;;;-140.64;52.34
7930;BME280;4010;42.698;23.124;2023-12-14T06:09:53;118349.16;;;-140.64;52.10
7930;BME280;4010;42.698;23.124;2023-12-14T06:12:19;118349.16;;;-140.64;51.30
7930;BME280;4010;42.698;23.124;2023-12-14T06:14:46;118349.16;;;-140.64;51.31
7930;BME280;4010;42.698;23.124;2023-12-14T06:17:13;118349.16;;;-140.64;51.15
7930;BME280;4010;42.698;23.124;2023-12-14T06:19:40;118349.16;;;-140.64;51.02
7930;BME280;4010;42.698;23.124;2023-12-14T06:22:06;118349.16;;;-140.64;51.11
7930;BME280;4010;42.698;23.124;2023-12-14T06:24:34;118349.16;;;-140.64;50.90
7930;BME280;4010;42.698;23.124;2023-12-14T06:27:01;118349.16;;;-140.64;51.08
7930;BME280;4010;42.698;23.124;2023-12-14T06:29:29;118349.16;;;-140.64;51.56
7930;BME280;4010;42.698;23.124;2023-12-14T06:31:56;118349.16;;;-140.64;51.75
7930;BME280;4010;42.698;23.124;2023-12-14T06:34:23;118349.16;;;-140.64;50.94
7930;BME280;4010;42.698;23.124;2023-12-14T06:36:49;118349.16;;;-140.64;51.04
7930;BME280;4010;42.698;23.124;2023-12-14T06:39:16;118349.16;;;-140.64;50.77
7930;BME280;4010;42.698;23.124;2023-12-14T06:41:44;118349.16;;;-140.64;50.88
7930;BME280;4010;42.698;23.124;2023-12-14T06:44:11;118349.16;;;-140.64;50.90
7930;BME280;4010;42.698;23.124;2023-12-14T06:46:38;118349.16;;;-140.64;50.17
7930;BME280;4010;42.698;23.124;2023-12-14T06:49:04;118349.16;;;-140.64;50.68
7930;BME280;4010;42.698;23.124;2023-12-14T06:51:31;118349.16;;;-140.64;51.18
7930;BME280;4010;42.698;23.124;2023-12-14T06:53:58;118349.16;;;-140.64;51.13
7930;BME280;4010;42.698;23.124;2023-12-14T06:56:24;118349.16;;;-140.64;50.61
7930;BME280;4010;42.698;23.124;2023-12-14T06:58:53;118349.16;;;-140.64;50.27
7930;BME280;4010;42.698;23.124;2023-12-14T07:01:19;118349.16;;;-140.64;50.01
7930;BME280;4010;42.698;23.124;2023-12-14T07:03:46;118349.16;;;-140.64;50.05
7930;BME280;4010;42.698;23.124;2023-12-14T07:06:13;118349.16;;;-140.64;50.35
7930;BME280;4010;42.698;23.124;2023-12-14T07:08:40;118349.16;;;-140.64;50.13
7930;BME280;4010;42.698;23.124;2023-12-14T07:11:07;118349.16;;;-140.64;50.05
7930;BME280;4010;42.698;23.124;2023-12-14T07:13:34;118349.16;;;-140.64;50.41
7930;BME280;4010;42.698;23.124;2023-12-14T07:16:05;118349.16;;;-140.64;50.06
7930;BME280;4010;42.698;23.124;2023-12-14T07:18:33;118349.16;;;-140.64;50.11
7930;BME280;4010;42.698;23.124;2023-12-14T07:21:00;118349.16;;;-140.64;50.16
7930;BME280;4010;42.698;23.124;2023-12-14T07:23:26;118349.16;;;-140.64;50.49
7930;BME280;4010;42.698;23.124;2023-12-14T07:25:53;118349.16;;;-140.64;50.74
7930;BME280;4010;42.698;23.124;2023-12-14T07:28:20;118349.16;;;-140.64;50.64
7930;BME280;4010;42.698;23.124;2023-12-14T07:30:47;118349.16;;;-140.64;51.86
7930;BME280;4010;42.698;23.124;2023-12-14T07:33:16;118349.16;;;-140.64;52.63
7930;BME280;4010;42.698;23.124;2023-12-14T07:35:43;118349.16;;;-140.64;52.21
7930;BME280;4010;42.698;23.124;2023-12-14T07:38:11;118349.16;;;-140.64;52.99
7930;BME280;4010;42.698;23.124;2023-12-14T07:40:37;118349.16;;;-140.64;53.59
7930;BME280;4010;42.698;23.124;2023-12-14T07:43:06;118349.16;;;-140.64;52.35
7930;BME280;4010;42.698;23.124;2023-12-14T07:45:33;118349.16;;;-140.64;53.17
7930;BME280;4010;42.698;23.124;2023-12-14T07:48:00;118349.16;;;-140.64;53.58
7930;BME280;4010;42.698;23.124;2023-12-14T07:50:28;118349.16;;;-140.64;53.29
7930;BME280;4010;42.698;23.124;2023-12-14T07:52:55;118349.16;;;-140.64;53.33
7930;BME280;4010;42.698;23.124;2023-12-14T07:55:22;118349.16;;;-140.64;53.46
7930;BME280;4010;42.698;23.124;2023-12-14T07:57:49;118349.16;;;-140.64;52.26
7930;BME280;4010;42.698;23.124;2023-12-14T08:00:16;118349.16;;;-140.64;52.62
7930;BME280;4010;42.698;23.124;2023-12-14T08:02:43;118349.16;;;-140.64;53.35
7930;BME280;4010;42.698;23.124;2023-12-14T08:05:10;118349.16;;;-140.64;53.77
7930;BME280;4010;42.698;23.124;2023-12-14T08:07:38;118349.16;;;-140.64;53.27
7930;BME280;4010;42.698;23.124;2023-12-14T08:10:05;118349.16;;;-140.64;53.10
7930;BME280;4010;42.698;23.124;2023-12-14T08:12:32;118349.16;;;-140.64;52.21
7930;BME280;4010;42.698;23.124;2023-12-14T08:14:59;118349.16;;;-140.64;52.11
7930;BME280;4010;42.698;23.124;2023-12-14T08:17:26;118349.16;;;-140.64;52.21
7930;BME280;4010;42.698;23.124;2023-12-14T08:19:53;118349.16;;;-140.64;52.25
7930;BME280;4010;42.698;23.124;2023-12-14T08:22:20;118349.16;;;-140.64;52.14
7930;BME280;4010;42.698;23.124;2023-12-14T08:24:48;118349.16;;;-140.64;52.16
7930;BME280;4010;42.698;23.124;2023-12-14T08:27:15;118349.16;;;-140.64;52.01
7930;BME280;4010;42.698;23.124;2023-12-14T08:29:42;118349.16;;;-140.64;51.65
7930;BME280;4010;42.698;23.124;2023-12-14T08:32:10;118349.16;;;-140.64;51.76
7930;BME280;4010;42.698;23.124;2023-12-14T08:34:37;118349.16;;;-140.64;51.90
7930;BME280;4010;42.698;23.124;2023-12-14T08:37:03;118349.16;;;-140.64;52.34
7930;BME280;4010;42.698;23.124;2023-12-14T08:39:30;118349.16;;;-140.64;51.09
7930;BME280;4010;42.698;23.124;2023-12-14T08:41:58;118349.16;;;-140.64;50.92
7930;BME280;4010;42.698;23.124;2023-12-14T08:44:25;118349.16;;;-140.64;50.97
7930;BME280;4010;42.698;23.124;2023-12-14T08:46:51;118349.16;;;-140.64;51.31
7930;BME280;4010;42.698;23.124;2023-12-14T08:49:18;118349.16;;;-140.64;52.16
7930;BME280;4010;42.698;23.124;2023-12-14T08:51:45;118349.16;;;-140.64;51.31
7930;BME280;4010;42.698;23.124;2023-12-14T08:54:12;118349.16;;;-140.64;49.42
7930;BME280;4010;42.698;23.124;2023-12-14T08:56:38;118349.16;;;-140.64;51.13
7930;BME280;4010;42.698;23.124;2023-12-14T08:59:07;118349.16;;;-140.64;50.41
7930;BME280;4010;42.698;23.124;2023-12-14T09:01:34;118349.16;;;-140.64;49.89
7930;BME280;4010;42.698;23.124;2023-12-14T09:04:01;118349.16;;;-140.64;49.77
7930;BME280;4010;42.698;23.124;2023-12-14T09:06:28;118349.16;;;-140.64;50.91
7930;BME280;4010;42.698;23.124;2023-12-14T09:08:54;118349.16;;;-140.64;50.01
7930;BME280;4010;42.698;23.124;2023-12-14T09:11:21;118349.16;;;-140.64;49.30
7930;BME280;4010;42.698;23.124;2023-12-14T09:13:48;118349.16;;;-140.64;49.15
7930;BME280;4010;42.698;23.124;2023-12-14T09:16:17;118349.16;;;-140.64;48.25
7930;BME280;4010;42.698;23.124;2023-12-14T09:18:44;118349.16;;;-140.64;48.86
7930;BME280;4010;42.698;23.124;2023-12-14T09:21:11;118349.16;;;-140.64;48.11
7930;BME280;4010;42.698;23.124;2023-12-14T09:23:37;118349.16;;;-140.64;47.73
7930;BME280;4010;42.698;23.124;2023-12-14T09:26:06;118349.16;;;-140.64;48.92
7930;BME280;4010;42.698;23.124;2023-12-14T09:28:32;118349.16;;;-140.64;50.87
7930;BME280;4010;42.698;23.124;2023-12-14T09:30:59;118349.16;;;-140.64;52.06
7930;BME280;4010;42.698;23.124;2023-12-14T09:33:27;118349.16;;;-140.64;52.65
7930;BME280;4010;42.698;23.124;2023-12-14T09:35:55;118349.16;;;-140.64;53.23
7930;BME280;4010;42.698;23.124;2023-12-14T09:38:22;118349.16;;;-140.64;54.40
7930;BME280;4010;42.698;23.124;2023-12-14T09:40:48;118349.16;;;-140.64;55.37
7930;BME280;4010;42.698;23.124;2023-12-14T09:43:15;118349.16;;;-140.64;55.42
7930;BME280;4010;42.698;23.124;2023-12-14T09:45:42;118349.16;;;-140.64;55.92
7930;BME280;4010;42.698;23.124;2023-12-14T09:48:10;118349.16;;;-140.64;57.26
7930;BME280;4010;42.698;23.124;2023-12-14T09:50:40;118349.16;;;-140.64;59.54
7930;BME280;4010;42.698;23.124;2023-12-14T09:53:08;118349.16;;;-140.64;59.20
7930;BME280;4010;42.698;23.124;2023-12-14T09:55:35;118349.16;;;-140.64;60.50
7930;BME280;4010;42.698;23.124;2023-12-14T09:58:02;118349.16;;;-140.64;59.57
7930;BME280;4010;42.698;23.124;2023-12-14T10:00:35;118349.16;;;-140.64;59.12
7930;BME280;4010;42.698;23.124;2023-12-14T10:03:24;118349.16;;;-140.64;60.89
7930;BME280;4010;42.698;23.124;2023-12-14T10:05:54;118349.16;;;-140.64;60.91
7930;BME280;4010;42.698;23.124;2023-12-14T10:08:21;118349.16;;;-140.64;59.98
7930;BME280;4010;42.698;23.124;2023-12-14T10:10:50;118349.16;;;-140.64;59.96
7930;BME280;4010;42.698;23.124;2023-12-14T10:13:18;118349.16;;;-140.64;59.36
7930;BME280;4010;42.698;23.124;2023-12-14T10:15:46;118349.16;;;-140.64;59.19
7930;BME280;4010;42.698;23.124;2023-12-14T10:18:21;118349.16;;;-140.64;61.27
7930;BME280;4010;42.698;23.124;2023-12-14T10:20:48;118349.16;;;-140.64;61.89
7930;BME280;4010;42.698;23.124;2023-12-14T10:23:16;118349.16;;;-140.64;61.06
7930;BME280;4010;42.698;23.124;2023-12-14T10:25:44;118349.16;;;-140.64;60.48
7930;BME280;4010;42.698;23.124;2023-12-14T10:28:11;118349.16;;;-140.64;60.04
7930;BME280;4010;42.698;23.124;2023-12-14T10:30:38;118349.16;;;-140.64;60.86
7930;BME280;4010;42.698;23.124;2023-12-14T10:33:05;118349.16;;;-140.64;60.96
7930;BME280;4010;42.698;23.124;2023-12-14T10:35:32;118349.16;;;-140.64;61.21
7930;BME280;4010;42.698;23.124;2023-12-14T10:38:03;118349.16;;;-140.64;62.55
7930;BME280;4010;42.698;23.124;2023-12-14T10:40:32;118349.16;;;-140.64;63.37
7930;BME280;4010;42.698;23.124;2023-12-14T10:43:00;118349.16;;;-140.64;62.54
7930;BME280;4010;42.698;23.124;2023-12-14T10:45:29;118349.16;;;-140.64;63.26
7930;BME280;4010;42.698;23.124;2023-12-14T10:47:59;118349.16;;;-140.64;64.17
7930;BME280;4010;42.698;23.124;2023-12-14T10:50:28;118349.16;;;-140.64;65.33
7930;BME280;4010;42.698;23.124;2023-12-14T10:52:56;118349.16;;;-140.64;67.55
7930;BME280;4010;42.698;23.124;2023-12-14T10:55:28;118349.16;;;-140.64;66.65
7930;BME280;4010;42.698;23.124;2023-12-14T10:57:58;118349.16;;;-140.64;66.87
7930;BME280;4010;42.698;23.124;2023-12-14T11:00:26;118349.16;;;-140.64;69.08
7930;BME280;4010;42.698;23.124;2023-12-14T11:02:53;118349.16;;;-140.64;70.04
7930;BME280;4010;42.698;23.124;2023-12-14T11:05:22;118349.16;;;-140.64;71.37
7930;BME280;4010;42.698;23.124;2023-12-14T11:07:55;118349.16;;;-140.64;72.38
7930;BME280;4010;42.698;23.124;2023-12-14T11:10:26;118349.16;;;-140.64;71.23
7930;BME280;4010;42.698;23.124;2023-12-14T11:12:56;118349.16;;;-140.64;73.49
7930;BME280;4010;42.698;23.124;2023-12-14T11:15:25;118349.16;;;-140.64;74.15
7930;BME280;4010;42.698;23.124;2023-12-14T11:18:25;118349.16;;;-140.64;75.18
7930;BME280;4010;42.698;23.124;2023-12-14T11:20:54;118349.16;;;-140.64;75.54
7930;BME280;4010;42.698;23.124;2023-12-14T11:23:30;118349.16;;;-140.64;75.34
7930;BME280;4010;42.698;23.124;2023-12-14T11:25:58;118349.16;;;-140.64;74.96
7930;BME280;4010;42.698;23.124;2023-12-14T11:28:26;118349.16;;;-140.64;76.68
7930;BME280;4010;42.698;23.124;2023-12-14T11:30:54;118349.16;;;-140.64;76.01
7930;BME280;4010;42.698;23.124;2023-12-14T11:33:21;118349.16;;;-140.64;75.65
7930;BME280;4010;42.698;23.124;2023-12-14T11:35:50;118349.16;;;-140.64;76.08
7930;BME280;4010;42.698;23.124;2023-12-14T11:38:18;118349.16;;;-140.64;76.02
7930;BME280;4010;42.698;23.124;2023-12-14T11:40:47;118349.16;;;-140.64;76.51
7930;BME280;4010;42.698;23.124;2023-12-14T11:43:14;118349.16;;;-140.64;75.28
7930;BME280;4010;42.698;23.124;2023-12-14T11:45:41;118349.16;;;-140.64;75.44
7930;BME280;4010;42.698;23.124;2023-12-14T11:48:11;118349.16;;;-140.64;76.43
7930;BME280;4010;42.698;23.124;2023-12-14T11:50:40;118349.16;;;-140.64;76.81
7930;BME280;4010;42.698;23.124;2023-12-14T11:53:08;118349.16;;;-140.64;76.49
7930;BME280;4010;42.698;23.124;2023-12-14T11:55:36;118349.16;;;-140.64;77.18
7930;BME280;4010;42.698;23.124;2023-12-14T11:58:03;118349.16;;;-140.64;76.35
7930;BME280;4010;42.698;23.124;2023-12-14T12:00:31;118349.16;;;-140.64;76.59
7930;BME280;4010;42.698;23.124;2023-12-14T12:03:13;118349.16;;;-140.64;76.17
7930;BME280;4010;42.698;23.124;2023-12-14T12:05:42;118349.16;;;-140.64;75.98
7930;BME280;4010;42.698;23.124;2023-12-14T12:08:10;118349.16;;;-140.64;75.89
7930;BME280;4010;42.698;23.124;2023-12-14T12:10:37;118349.16;;;-140.64;76.03
7930;BME280;4010;42.698;23.124;2023-12-14T12:13:07;118349.16;;;-140.64;75.68
7930;BME280;4010;42.698;23.124;2023-12-14T12:15:35;118349.16;;;-140.64;76.14
7930;BME280;4010;42.698;23.124;2023-12-14T12:18:06;118349.16;;;-140.64;75.93
7930;BME280;4010;42.698;23.124;2023-12-14T12:20:35;118349.16;;;-140.64;76.07
7930;BME280;4010;42.698;23.124;2023-12-14T12:23:02;118349.16;;;-140.64;76.16
7930;BME280;4010;42.698;23.124;2023-12-14T12:25:29;118349.16;;;-140.64;75.49
7930;BME280;4010;42.698;23.124;2023-12-14T12:27:57;118349.16;;;-140.64;75.75
7930;BME280;4010;42.698;23.124;2023-12-14T12:30:24;118349.16;;;-140.64;75.66
7930;BME280;4010;42.698;23.124;2023-12-14T12:32:50;118349.16;;;-140.64;75.99
7930;BME280;4010;42.698;23.124;2023-12-14T12:35:17;118349.16;;;-140.64;75.28
7930;BME280;4010;42.698;23.124;2023-12-14T12:37:45;118349.16;;;-140.64;74.87
7930;BME280;4010;42.698;23.124;2023-12-14T12:40:12;118349.16;;;-140.64;74.92
7930;BME280;4010;42.698;23.124;2023-12-14T12:42:41;118349.16;;;-140.64;74.93